Time;durP1;ratioP1;P1;durP2;ratioP2;P2;SDS_P1;SDS_P2;PMS_P1;PMS_P2;Temp;Humidity;BMP_temperature;BMP_pressure;BME280_temperature;BME280_humidity;BME280_pressure;Samples;Min_cycle;Max_cycle;Signal;HPM_P1;HPM_P2
2022/08/09 00:01:04;;;;;;;3.20;3.10;;;;;;;;;;5130937;27;20257;-74
2022/08/09 00:03:36;;;;;;;2.67;2.67;;;;;;;;;;5116654;28;20276;-74
2022/08/09 00:06:22;;;;;;;3.30;3.30;;;;;;;15.68;91.46;65842.94;5113932;28;20292;-74
2022/08/09 00:08:49;;;;;;;3.23;2.90;;;;;;;15.69;91.47;65830.97;5112677;28;20215;-73
2022/08/09 00:11:20;;;;;;;2.87;2.87;;;;;;;15.64;91.65;65824.84;5118953;28;20587;-73
2022/08/09 00:13:50;;;;;;;3.40;3.20;;;;;;;15.53;92.12;65826.22;5134513;28;20176;-74
2022/08/09 00:16:18;;;;;;;2.80;2.80;;;;;;;15.54;92.24;65816.88;5134173;28;20204;-74
2022/08/09 00:19:02;;;;;;;3.10;3.10;;;;;;;;;;5125709;28;20189;-73
2022/08/09 00:21:35;;;;;;;2.83;2.60;;;;;;;15.53;92.32;65812.59;5122658;28;20233;-73
2022/08/09 00:24:02;;;;;;;2.83;2.83;;;;;;;15.51;92.36;65813.53;5131383;27;20214;-74
2022/08/09 00:26:30;;;;;;;3.03;2.93;;;;;;;15.47;92.75;65814.31;5138209;27;20206;-74
2022/08/09 00:29:02;;;;;;;3.40;3.20;;;;;;;15.38;93.11;65802.22;5136723;27;20591;-74
2022/08/09 00:31:38;;;;;;;2.67;2.67;;;;;;;15.38;93.11;65799.06;5138225;27;20168;-74
2022/08/09 00:34:24;;;;;;;3.10;3.00;;;;;;;;;;5135015;27;20271;-74
2022/08/09 00:36:51;;;;;;;2.40;2.40;;;;;;;15.28;93.69;65787.91;5138039;27;20207;-74
2022/08/09 00:39:18;;;;;;;3.33;3.13;;;;;;;15.32;93.75;65792.38;5135691;27;20662;-73
2022/08/09 00:42:05;;;;;;;2.60;2.60;;;;;;;15.25;94.03;65785.16;5097311;28;20202;-74
2022/08/09 00:44:51;;;;;;;3.10;3.00;;;;;;;;;;5096860;28;20233;-73
2022/08/09 00:47:20;;;;;;;2.87;2.87;;;;;;;15.24;94.38;65786.09;5115845;27;20196;-74
2022/08/09 00:49:50;;;;;;;3.23;3.17;;;;;;;15.20;94.44;65776.97;5136491;27;20245;-74
2022/08/09 00:52:21;;;;;;;2.90;2.90;;;;;;;15.19;94.64;65781.06;5136977;27;20195;-73
2022/08/09 00:54:56;;;;;;;2.60;2.60;;;;;;;15.17;94.74;65781.47;5137991;27;20204;-73
2022/08/09 00:57:25;;;;;;;2.40;2.40;;;;;;;15.17;94.89;65781.47;5138291;27;20176;-74
2022/08/09 01:00:08;;;;;;;3.37;3.37;;;;;;;15.13;95.01;65777.56;5133616;27;20708;-74
2022/08/09 01:03:03;;;;;;;2.90;2.90;;;;;;;15.12;95.09;65770.66;5137624;27;20169;-74
2022/08/09 01:05:51;;;;;;;3.30;3.17;;;;;;;15.06;95.40;65761.94;5137726;27;20208;-74
2022/08/09 01:08:42;;;;;;;4.40;2.87;;;;;;;15.07;95.48;65765.09;5134224;27;20193;-74
2022/08/09 01:11:18;;;;;;;3.10;3.10;;;;;;;;;;5096734;28;20182;-73
2022/08/09 01:13:55;;;;;;;3.20;3.20;;;;;;;15.04;96.01;65759.72;5103215;28;20258;-73
2022/08/09 01:16:40;;;;;;;2.60;2.60;;;;;;;15.11;96.13;65770.13;5115800;28;20205;-73
2022/08/09 01:19:26;;;;;;;2.50;2.50;;;;;;;;;;5124837;27;20238;-73
2022/08/09 01:22:36;;;;;;;2.73;2.67;;;;;;;14.95;96.86;65751.75;5137458;27;20553;-74
2022/08/09 01:25:45;;;;;;;3.70;3.40;;;;;;;15.00;96.98;65759.94;5136221;27;20220;-74
2022/08/09 01:28:17;;;;;;;3.80;3.70;;;;;;;;;;5134610;27;20189;-73
2022/08/09 01:30:45;;;;;;;3.10;3.10;;;;;;;14.89;97.56;65748.25;5132790;27;20592;-73
2022/08/09 01:33:22;;;;;;;3.70;3.70;;;;;;;14.88;97.79;65743.97;5137331;27;20615;-74
2022/08/09 01:35:56;;;;;;;3.63;3.43;;;;;;;14.82;98.08;65738.41;5137174;27;20257;-74
2022/08/09 01:38:28;;;;;;;3.30;3.30;;;;;;;14.81;98.17;65736.75;5134128;27;20188;-73
2022/08/09 01:41:06;;;;;;;4.27;3.33;;;;;;;14.82;98.41;65730.00;5133782;27;20183;-74
2022/08/09 01:43:37;;;;;;;3.43;3.43;;;;;;;14.77;98.64;65730.22;5096459;28;20324;-74
2022/08/09 01:46:20;;;;;;;3.60;3.40;;;;;;;;;;5095829;28;20205;-74
2022/08/09 01:48:55;;;;;;;3.90;3.60;;;;;;;14.69;99.03;65726.00;5101822;28;20272;-74
2022/08/09 01:51:22;;;;;;;3.10;3.10;;;;;;;;;;5116703;28;20177;-74
2022/08/09 01:53:54;;;;;;;3.97;3.70;;;;;;;14.65;99.44;65719.50;5123697;27;20189;-74
2022/08/09 01:56:25;;;;;;;3.40;3.40;;;;;;;14.57;99.63;65711.16;5136551;27;20575;-74
2022/08/09 01:58:55;;;;;;;3.40;3.37;;;;;;;14.57;100.00;65707.97;5133504;27;20599;-73
2022/08/09 02:01:24;;;;;;;3.83;3.53;;;;;;;14.54;100.00;65710.44;5132151;27;20284;-73
2022/08/09 02:04:14;;;;;;;3.83;3.83;;;;;;;14.53;100.00;65704.09;5116521;27;20246;-73
2022/08/09 02:09:29;;;;;;;2.90;2.90;;;;;;;;;;5125567;27;20195;-73
2022/08/09 02:12:11;;;;;;;3.90;3.80;;;;;;;14.46;100.00;65698.38;5136476;27;20177;-73
2022/08/09 02:14:47;;;;;;;3.13;3.13;;;;;;;14.45;100.00;65697.78;5128729;27;20192;-73
2022/08/09 02:17:20;;;;;;;3.27;3.27;;;;;;;14.41;100.00;65692.78;5136169;27;20172;-73
2022/08/09 02:20:07;;;;;;;2.67;2.67;;;;;;;14.40;100.00;65689.06;5133070;27;20235;-73
2022/08/09 02:22:51;;;;;;;3.57;3.30;;;;;;;14.29;100.00;65688.38;5136052;27;20204;-73
2022/08/09 02:25:21;;;;;;;3.03;3.03;;;;;;;14.30;100.00;65684.28;5133137;27;20615;-73
2022/08/09 02:27:58;;;;;;;3.57;3.57;;;;;;;14.24;100.00;65677.03;5134180;27;20245;-73
2022/08/09 02:30:39;;;;;;;4.10;3.63;;;;;;;14.25;100.00;65672.94;5134399;27;20192;-73
2022/08/09 02:33:10;;;;;;;3.80;3.47;;;;;;;14.21;100.00;65669.03;5114821;27;20204;-73
2022/08/09 02:35:45;;;;;;;3.60;3.40;;;;;;;14.21;100.00;65673.69;5115483;28;20644;-73
2022/08/09 02:38:34;;;;;;;3.37;3.37;;;;;;;14.19;100.00;65674.09;5119698;27;20242;-73
2022/08/09 02:41:07;;;;;;;3.60;3.30;;;;;;;14.15;100.00;65664.97;5131768;27;20193;-73
2022/08/09 02:43:36;;;;;;;3.07;3.07;;;;;;;14.16;100.00;65668.69;5135635;27;20185;-73
2022/08/09 02:46:24;;;;;;;3.00;3.00;;;;;;;14.15;100.00;65672.25;5135384;27;20273;-73
2022/08/09 02:48:55;;;;;;;2.97;2.97;;;;;;;14.16;100.00;65670.75;5133497;27;20199;-74
2022/08/09 02:51:25;;;;;;;3.47;3.37;;;;;;;14.11;100.00;65659.97;5133417;27;20196;-73
2022/08/09 02:53:54;;;;;;;3.23;3.23;;;;;;;;;;5133675;27;20596;-73
2022/08/09 02:56:28;;;;;;;3.50;3.50;;;;;;;;;;5135323;27;20207;-74
2022/08/09 02:58:55;;;;;;;3.27;3.27;;;;;;;;;;5133737;27;20192;-73
2022/08/09 03:01:22;;;;;;;3.10;3.10;;;;;;;14.01;100.00;65649.97;5131566;27;20204;-73
2022/08/09 03:04:10;;;;;;;2.90;2.90;;;;;;;14.00;100.00;65648.28;5135464;27;20593;-74
2022/08/09 03:06:46;;;;;;;3.30;3.30;;;;;;;14.00;100.00;65650.91;5119014;27;20212;-74
2022/08/09 03:09:15;;;;;;;3.10;3.10;;;;;;;14.02;100.00;65653.13;5124279;27;20554;-74
2022/08/09 03:11:43;;;;;;;3.33;3.33;;;;;;;14.00;100.00;65648.28;5133965;27;20187;-74
2022/08/09 03:14:31;;;;;;;3.10;2.90;;;;;;;13.98;100.00;65646.06;5134380;27;20612;-74
2022/08/09 03:17:01;;;;;;;4.43;4.23;;;;;;;;;;5132733;27;20265;-73
2022/08/09 03:19:32;;;;;;;3.17;3.17;;;;;;;13.92;100.00;65636.78;5126819;27;20271;-74
2022/08/09 03:22:19;;;;;;;3.20;3.00;;;;;;;13.93;100.00;65645.72;5135247;27;20193;-74
2022/08/09 03:24:59;;;;;;;3.67;3.60;;;;;;;;;;5134989;27;20643;-74
2022/08/09 03:27:51;;;;;;;4.00;3.73;;;;;;;13.86;100.00;65638.50;5133326;27;20220;-73
2022/08/09 03:30:18;;;;;;;3.57;3.47;;;;;;;13.85;100.00;65629.00;5129807;27;20189;-73
2022/08/09 03:33:00;;;;;;;3.40;3.40;;;;;;;13.82;100.00;65625.69;5135289;27;20201;-73
2022/08/09 03:35:39;;;;;;;3.50;3.43;;;;;;;13.81;100.00;65625.13;5134595;27;20262;-73
2022/08/09 03:38:26;;;;;;;3.77;3.67;;;;;;;13.75;100.00;65621.06;5132219;27;20220;-73
2022/08/09 03:40:54;;;;;;;2.90;2.90;;;;;;;13.74;100.00;65625.72;5130625;27;20241;-73
2022/08/09 03:43:21;;;;;;;3.17;3.17;;;;;;;13.74;100.00;65622.56;5134580;27;20253;-73
2022/08/09 03:45:47;;;;;;;3.27;3.27;;;;;;;13.73;100.00;65626.66;5134360;27;20208;-73
2022/08/09 03:48:35;;;;;;;3.20;3.20;;;;;;;13.71;100.00;65619.22;5131778;27;20317;-73
2022/08/09 03:51:10;;;;;;;4.10;3.47;;;;;;;13.70;100.00;65615.50;5133521;27;20190;-73
2022/08/09 03:53:56;;;;;;;3.30;3.30;;;;;;;13.68;100.00;65610.69;5132548;27;20283;-73
2022/08/09 03:56:25;;;;;;;4.47;3.53;;;;;;;13.65;100.00;65607.34;5134512;27;20754;-73
2022/08/09 03:58:51;;;;;;;8.90;3.70;;;;;;;;;;5133750;27;20734;-73
2022/08/09 04:01:21;;;;;;;3.63;3.53;;;;;;;;;;5115351;27;20193;-73
2022/08/09 04:03:53;;;;;;;3.13;2.93;;;;;;;13.56;100.00;65597.34;5113803;28;20226;-74
2022/08/09 04:06:28;;;;;;;3.47;3.20;;;;;;;13.53;100.00;65594.00;5113916;28;20209;-74
2022/08/09 04:08:55;;;;;;;3.63;3.53;;;;;;;13.51;100.00;65605.38;5113698;28;20187;-74
2022/08/09 04:11:21;;;;;;;3.60;3.40;;;;;;;13.48;100.00;65592.16;5124591;28;20189;-73
2022/08/09 04:13:50;;;;;;;4.03;3.93;;;;;;;13.43;100.00;65586.63;5113235;28;20658;-73
2022/08/09 04:16:36;;;;;;;4.77;3.47;;;;;;;13.46;100.00;65589.38;5134185;28;20236;-73
2022/08/09 04:19:04;;;;;;;4.07;3.37;;;;;;;13.40;100.00;65588.50;5134390;28;20184;-73
2022/08/09 04:21:36;;;;;;;3.70;3.50;;;;;;;13.38;100.00;65583.66;5134391;28;20168;-73
2022/08/09 04:24:06;;;;;;;4.50;4.30;;;;;;;13.41;100.00;65584.38;5129362;28;20189;-73
2022/08/09 04:26:33;;;;;;;4.27;4.00;;;;;;;13.41;100.00;65581.78;5127014;28;20723;-73
2022/08/09 04:29:03;;;;;;;4.00;3.90;;;;;;;13.41;100.00;65584.38;5134351;28;20181;-73
2022/08/09 04:31:40;;;;;;;3.37;3.27;;;;;;;13.38;100.00;65581.06;5134133;28;20176;-73
2022/08/09 04:34:13;;;;;;;3.77;3.67;;;;;;;13.37;100.00;65582.00;5134061;28;20176;-74
2022/08/09 04:36:44;;;;;;;4.37;4.17;;;;;;;13.31;100.00;65578.50;5130970;28;20250;-73
2022/08/09 04:39:16;;;;;;;3.97;3.77;;;;;;;13.31;100.00;65570.66;5131186;28;20184;-73
2022/08/09 04:41:43;;;;;;;3.87;3.67;;;;;;;13.31;100.00;65578.50;5133042;28;20211;-73
2022/08/09 04:44:11;;;;;;;4.07;4.07;;;;;;;13.32;100.00;65579.59;5134198;28;20185;-73
2022/08/09 04:46:40;;;;;;;4.47;4.30;;;;;;;13.32;100.00;65573.84;5133695;28;20216;-73
2022/08/09 04:49:32;;;;;;;3.97;3.87;;;;;;;13.37;100.00;65584.59;5118347;28;20535;-73
2022/08/09 04:52:19;;;;;;;3.33;3.33;;;;;;;;;;5132181;28;20766;-74
2022/08/09 04:54:52;;;;;;;3.43;3.43;;;;;;;;;;5133806;28;20176;-73
2022/08/09 04:57:20;;;;;;;4.20;4.00;;;;;;;13.39;100.00;65587.38;5131725;28;20192;-73
2022/08/09 04:59:52;;;;;;;4.40;4.27;;;;;;;13.44;100.00;65590.34;5131592;28;20259;-73
2022/08/09 05:02:19;;;;;;;4.53;4.43;;;;;;;;;;5094758;28;20246;-73
2022/08/09 05:04:45;;;;;;;4.93;4.93;;;;;;;13.54;100.00;65603.50;5131737;28;20570;-73
2022/08/09 05:07:12;;;;;;;4.83;4.63;;;;;;;13.59;100.00;65605.91;5130674;28;20193;-73
2022/08/09 05:09:45;;;;;;;4.63;4.33;;;;;;;13.71;100.00;65614.00;5134202;28;20173;-73
2022/08/09 05:12:15;;;;;;;4.20;4.00;;;;;;;13.72;100.00;65622.97;5133620;27;20188;-73
2022/08/09 05:14:41;;;;;;;4.30;4.30;;;;;;;13.73;100.00;65622.00;5133725;27;20205;-73
2022/08/09 05:17:08;;;;;;;4.37;4.20;;;;;;;13.79;100.00;65633.34;5137315;27;20185;-73
2022/08/09 05:19:54;;;;;;;3.93;3.93;;;;;;;13.81;100.00;65629.78;5137577;27;20263;-74
2022/08/09 05:22:23;;;;;;;4.37;4.30;;;;;;;13.83;100.00;65629.41;5126547;27;20193;-73
2022/08/09 05:25:03;;;;;;;4.40;4.10;;;;;;;13.99;100.00;65647.19;5123261;27;20216;-74
2022/08/09 05:27:29;;;;;;;4.47;4.10;;;;;;;13.93;100.00;65645.72;5135512;27;20311;-73
2022/08/09 05:29:56;;;;;;;5.73;5.50;;;;;;;;;;5137093;27;20284;-73
2022/08/09 05:32:24;;;;;;;5.53;5.03;;;;;;;14.04;100.00;65653.31;5134272;27;20598;-73
2022/08/09 05:34:55;;;;;;;3.63;3.53;;;;;;;;;;5136933;27;20188;-73
2022/08/09 05:37:22;;;;;;;4.23;3.97;;;;;;;14.08;100.00;65654.59;5134551;27;20192;-73
2022/08/09 05:39:51;;;;;;;4.03;3.83;;;;;;;14.09;100.00;65655.16;5136863;27;20208;-73
2022/08/09 05:42:17;;;;;;;4.53;4.47;;;;;;;;;;5132083;27;20258;-74
2022/08/09 05:44:52;;;;;;;4.50;4.27;;;;;;;14.22;100.00;65664.38;5137148;27;20188;-73
2022/08/09 05:47:21;;;;;;;3.83;3.80;;;;;;;14.32;100.00;65683.31;5136714;27;20177;-73
2022/08/09 05:49:49;;;;;;;3.50;3.40;;;;;;;14.40;100.00;65691.66;5136638;27;20188;-73
2022/08/09 05:52:36;;;;;;;5.03;4.73;;;;;;;;;;5132800;27;20282;-73
2022/08/09 05:55:05;;;;;;;4.63;4.20;;;;;;;14.49;100.00;65702.25;5134598;27;20208;-73
2022/08/09 05:57:34;;;;;;;4.33;4.23;;;;;;;14.55;100.00;65710.97;5095852;28;20198;-73
2022/08/09 06:00:21;;;;;;;4.17;3.97;;;;;;;14.63;100.00;65714.09;5095765;28;20257;-73
2022/08/09 06:02:47;;;;;;;3.93;3.93;;;;;;;14.73;100.00;65725.22;5100539;27;20643;-72
2022/08/09 06:05:19;;;;;;;5.13;4.60;;;;;;;;;;5135891;27;20212;-72
2022/08/09 06:08:06;;;;;;;4.23;3.90;;;;;;;14.82;100.00;65730.00;5114903;27;20670;-72
2022/08/09 06:10:37;;;;;;;4.23;3.83;;;;;;;14.85;100.00;65743.78;5126085;27;20206;-71
2022/08/09 06:13:08;;;;;;;3.77;3.77;;;;;;;;;;5113290;28;20218;-72
2022/08/09 06:15:43;;;;;;;3.63;3.57;;;;;;;15.10;100.00;65765.84;5115137;28;20212;-72
2022/08/09 06:18:12;;;;;;;3.77;3.67;;;;;;;15.11;100.00;65770.13;5113876;28;20189;-71
2022/08/09 06:20:41;;;;;;;5.03;4.63;;;;;;;15.12;100.00;65773.84;5111645;28;20185;-73
2022/08/09 06:23:08;;;;;;;4.10;3.90;;;;;;;15.23;100.00;65779.75;5114792;28;20647;-73
2022/08/09 06:25:41;;;;;;;3.90;3.87;;;;;;;;;;5113390;28;20266;-69
2022/08/09 06:28:08;;;;;;;4.50;4.30;;;;;;;15.40;100.00;65803.91;5109512;28;20225;-72
2022/08/09 06:30:35;;;;;;;4.13;3.90;;;;;;;;;;5122980;27;20196;-72
2022/08/09 06:33:02;;;;;;;4.40;4.27;;;;;;;15.62;100.00;65825.78;5128262;27;20283;-74
2022/08/09 06:35:49;;;;;;;4.03;3.80;;;;;;;;;;5134976;27;20236;-73
2022/08/09 06:38:23;;;;;;;4.57;4.27;;;;;;;;;;5127360;27;20287;-73
2022/08/09 06:41:03;;;;;;;4.43;3.53;;;;;;;15.83;100.00;65856.47;5125022;27;20189;-73
2022/08/09 06:43:30;;;;;;;4.13;3.80;;;;;;;15.92;100.00;65858.63;5134698;27;20654;-74
2022/08/09 06:45:59;;;;;;;4.30;4.00;;;;;;;;;;5135583;27;20213;-73
2022/08/09 06:48:36;;;;;;;3.63;3.53;;;;;;;16.22;100.00;65888.34;5122475;27;20276;-73
2022/08/09 06:51:09;;;;;;;12.30;3.50;;;;;;;16.32;100.00;65902.09;5119519;27;20182;-73
2022/08/09 06:53:38;;;;;;;3.87;3.67;;;;;;;16.42;100.00;65913.22;5123510;27;20228;-73
2022/08/09 06:56:07;;;;;;;4.27;3.87;;;;;;;;;;5112890;28;20602;-74
2022/08/09 06:58:35;;;;;;;3.73;3.73;;;;;;;;;;5122580;27;20241;-72
2022/08/09 07:01:21;;;;;;;5.20;4.70;;;;;;;16.56;98.36;65927.72;5110401;27;20724;-72
2022/08/09 07:03:52;;;;;;;4.50;3.70;;;;;;;16.62;98.95;65931.78;5107650;27;20193;-73
2022/08/09 07:06:25;;;;;;;4.40;4.10;;;;;;;16.68;98.29;65939.03;5117125;27;20216;-73
2022/08/09 07:08:55;;;;;;;4.67;4.37;;;;;;;;;;5133361;27;20196;-74
2022/08/09 07:11:21;;;;;;;3.87;3.73;;;;;;;;;;5135346;27;20184;-74
2022/08/09 07:13:50;;;;;;;8.27;3.97;;;;;;;;;;5117413;27;20228;-74
2022/08/09 07:16:31;;;;;;;4.20;4.00;;;;;;;;;;5113818;27;20208;-73
2022/08/09 07:19:14;;;;;;;4.37;4.33;;;;;;;;;;5125221;27;20192;-74
2022/08/09 07:21:49;;;;;;;4.00;4.00;;;;;;;;;;5123380;27;20258;-73
2022/08/09 07:24:27;;;;;;;3.93;3.83;;;;;;;17.29;97.63;66008.56;5116318;27;20261;-74
2022/08/09 07:27:07;;;;;;;4.17;4.07;;;;;;;17.36;95.51;66015.81;5114106;28;20201;-74
2022/08/09 07:29:54;;;;;;;4.03;3.93;;;;;;;17.40;95.38;66011.81;5114276;28;20248;-74
2022/08/09 07:32:24;;;;;;;4.13;4.03;;;;;;;17.39;94.58;66016.53;5114534;28;20202;-75
2022/08/09 07:35:05;;;;;;;3.47;3.47;;;;;;;17.41;94.27;66018.75;5108500;27;20241;-73
2022/08/09 07:37:36;;;;;;;3.70;3.60;;;;;;;;;;5109163;28;20188;-73
2022/08/09 07:40:15;;;;;;;4.57;4.37;;;;;;;17.52;93.75;66031.03;5110863;28;20648;-73
2022/08/09 07:42:49;;;;;;;3.90;3.70;;;;;;;17.65;93.68;66044.97;5112161;28;20668;-73
2022/08/09 07:45:24;;;;;;;4.63;4.33;;;;;;;17.72;92.68;66060.66;5113770;28;20240;-74
2022/08/09 07:48:07;;;;;;;3.97;3.97;;;;;;;17.63;92.03;66042.16;5112323;28;20230;-73
2022/08/09 07:50:54;;;;;;;4.73;4.03;;;;;;;17.73;91.81;66053.91;5112970;28;20691;-73
2022/08/09 07:53:40;;;;;;;3.77;3.67;;;;;;;;;;5113960;28;20252;-74
2022/08/09 07:56:26;;;;;;;3.87;3.87;;;;;;;;;;5114103;28;20289;-74
2022/08/09 07:58:56;;;;;;;4.33;4.17;;;;;;;18.10;90.37;66086.19;5113765;28;20191;-74
2022/08/09 08:01:25;;;;;;;2.77;2.77;;;;;;;18.17;90.56;66101.88;5113799;28;20181;-74
2022/08/09 08:04:01;;;;;;;4.17;4.17;;;;;;;18.24;90.58;66112.31;5114091;28;20165;-75
2022/08/09 08:06:28;;;;;;;3.23;3.23;;;;;;;18.23;90.77;66110.66;5113566;28;20205;-74
2022/08/09 08:08:58;;;;;;;3.30;3.30;;;;;;;18.23;91.11;66111.19;5113694;28;20205;-73
2022/08/09 08:11:30;;;;;;;3.90;3.67;;;;;;;18.37;90.66;66118.94;5113989;28;20260;-72
2022/08/09 08:14:16;;;;;;;3.10;2.90;;;;;;;18.38;90.04;66120.06;5113968;28;20620;-74
2022/08/09 08:16:43;;;;;;;3.17;3.00;;;;;;;18.38;89.71;66127.94;5113527;28;20265;-73
2022/08/09 08:19:29;;;;;;;3.57;3.57;;;;;;;18.49;90.41;66137.03;5111717;28;20237;-74
2022/08/09 08:21:56;;;;;;;3.50;3.50;;;;;;;;;;5097005;28;20697;-73
2022/08/09 08:24:24;;;;;;;4.03;3.93;;;;;;;18.56;87.65;66136.94;5108637;28;20223;-76
2022/08/09 08:27:05;;;;;;;2.73;2.53;;;;;;;18.55;87.57;66143.72;5114924;28;20236;-76
2022/08/09 08:29:42;;;;;;;3.30;3.20;;;;;;;18.52;88.64;66139.81;5113712;28;20250;-75
2022/08/09 08:32:15;;;;;;;4.07;3.40;;;;;;;18.56;87.17;66144.28;5113194;28;20213;-75
2022/08/09 08:34:54;;;;;;;3.80;3.80;;;;;;;18.56;86.69;66136.38;5116209;28;20632;-74
2022/08/09 08:37:26;;;;;;;3.17;3.17;;;;;;;18.63;86.11;66154.72;5113105;28;20181;-74
2022/08/09 08:40:07;;;;;;;3.67;3.57;;;;;;;;;;5119853;28;20195;-74
2022/08/09 08:42:34;;;;;;;3.67;3.40;;;;;;;18.84;86.32;66175.56;5131347;28;20276;-74
2022/08/09 08:45:04;;;;;;;3.33;3.33;;;;;;;;;;5134302;27;20208;-75
2022/08/09 08:47:39;;;;;;;3.40;3.27;;;;;;;;;;5137812;27;20284;-75
2022/08/09 08:50:14;;;;;;;3.13;3.13;;;;;;;19.15;83.65;66211.69;5117252;27;20276;-75
2022/08/09 08:52:43;;;;;;;3.60;3.43;;;;;;;19.28;83.40;66225.66;5108522;28;20243;-74
2022/08/09 08:55:25;;;;;;;3.47;3.47;;;;;;;19.31;81.32;66229.56;5101178;28;20217;-73
2022/08/09 08:57:54;;;;;;;3.93;3.83;;;;;;;19.41;81.03;66242.81;5101914;28;20182;-73
2022/08/09 09:00:26;;;;;;;3.23;3.13;;;;;;;19.46;79.09;66243.69;5111786;28;20192;-74
2022/08/09 09:02:59;;;;;;;3.83;3.00;;;;;;;;;;5116943;28;20742;-74
2022/08/09 09:05:37;;;;;;;5.03;3.67;;;;;;;19.64;79.27;66265.88;5115556;28;20209;-74
2022/08/09 09:08:25;;;;;;;3.10;3.10;;;;;;;19.71;78.80;66273.69;5115814;28;20252;-73
2022/08/09 09:10:59;;;;;;;2.87;2.87;;;;;;;19.87;80.18;66287.84;5115861;28;20180;-76
2022/08/09 09:13:27;;;;;;;3.07;3.07;;;;;;;19.81;76.65;66281.69;5116866;28;20189;-75
2022/08/09 09:16:13;;;;;;;3.60;3.33;;;;;;;19.81;75.95;66273.25;5116964;28;20285;-74
2022/08/09 09:18:40;;;;;;;3.30;3.20;;;;;;;;;;5117330;28;20189;-75
2022/08/09 09:21:14;;;;;;;2.87;2.87;;;;;;;;;;5116969;28;20174;-75
2022/08/09 09:23:44;;;;;;;2.40;2.40;;;;;;;19.98;77.14;66303.31;5116667;28;20185;-74
2022/08/09 09:26:22;;;;;;;3.50;3.50;;;;;;;20.13;73.04;66318.97;5116719;28;20209;-74
2022/08/09 09:28:51;;;;;;;3.00;3.00;;;;;;;;;;5117102;28;20250;-75
2022/08/09 09:31:37;;;;;;;4.00;3.43;;;;;;;20.33;73.27;66338.69;5116884;28;20268;-75
2022/08/09 09:34:23;;;;;;;3.40;3.30;;;;;;;;;;5116519;28;20216;-74
2022/08/09 09:36:55;;;;;;;3.70;3.50;;;;;;;20.48;73.42;66357.56;5116403;28;20246;-75
2022/08/09 09:39:22;;;;;;;3.13;3.03;;;;;;;;;;5116429;28;20604;-75
2022/08/09 09:42:21;;;;;;;3.47;3.23;;;;;;;20.53;74.47;66363.72;5116911;28;20181;-74
2022/08/09 09:44:55;;;;;;;3.67;3.53;;;;;;;20.56;71.29;66363.88;5116428;28;20178;-74
2022/08/09 09:47:22;;;;;;;3.23;2.97;;;;;;;;;;5116453;28;20194;-74
2022/08/09 09:49:50;;;;;;;5.40;2.93;;;;;;;;;;5116148;28;20196;-75
2022/08/09 09:52:53;;;;;;;3.37;3.37;;;;;;;;;;5101636;28;20265;-76
2022/08/09 09:55:22;;;;;;;3.70;3.13;;;;;;;;;;5116281;28;20216;-75
2022/08/09 09:58:03;;;;;;;2.87;2.87;;;;;;;20.68;70.16;66371.44;5114679;28;20173;-75
2022/08/09 10:00:56;;;;;;;3.20;3.20;;;;;;;20.83;69.28;66394.06;5116475;28;20180;-74
2022/08/09 10:03:44;;;;;;;3.20;3.00;;;;;;;;;;5116209;28;20178;-76
2022/08/09 10:06:23;;;;;;;2.83;2.80;;;;;;;;;;5116339;28;20213;-74
2022/08/09 10:08:49;;;;;;;8.13;2.83;;;;;;;;;;5115833;28;20297;-74
2022/08/09 10:11:26;;;;;;;3.27;3.13;;;;;;;21.16;66.58;66432.50;5116025;28;20272;-75
2022/08/09 10:14:27;;;;;;;3.20;3.10;;;;;;;21.10;65.88;66423.16;5115717;28;20256;-76
2022/08/09 10:17:07;;;;;;;3.27;3.17;;;;;;;;;;5115879;28;20200;-75
2022/08/09 10:19:54;;;;;;;3.07;2.97;;;;;;;21.24;65.86;66438.25;5116120;28;20265;-75
2022/08/09 10:22:35;;;;;;;3.10;3.03;;;;;;;;;;5115515;28;20247;-74
2022/08/09 10:25:07;;;;;;;2.73;2.73;;;;;;;21.35;64.61;66450.56;5116038;28;20193;-74
2022/08/09 10:27:40;;;;;;;3.67;3.57;;;;;;;;;;5115324;28;20265;-75
2022/08/09 10:30:23;;;;;;;3.50;3.50;;;;;;;;;;5115435;28;20201;-75
2022/08/09 10:33:10;;;;;;;3.13;3.13;;;;;;;21.53;63.34;66470.72;5115354;28;20622;-75
2022/08/09 10:35:57;;;;;;;3.20;3.03;;;;;;;;;;5115387;28;20288;-75
2022/08/09 10:38:27;;;;;;;2.20;2.20;;;;;;;;;;5115509;28;20598;-74
2022/08/09 10:41:15;;;;;;;2.93;2.93;;;;;;;21.48;63.99;66457.19;5115467;28;20201;-75
2022/08/09 10:43:44;;;;;;;3.27;3.23;;;;;;;;;;5115587;28;20217;-75
2022/08/09 10:46:45;;;;;;;2.50;2.40;;;;;;;;;;5115011;28;20213;-73
2022/08/09 10:49:29;;;;;;;3.00;2.50;;;;;;;21.62;63.03;66480.22;5115350;28;20230;-75
2022/08/09 10:52:40;;;;;;;3.03;2.83;;;;;;;21.67;63.74;66485.81;5114958;28;20268;-74
2022/08/09 10:55:24;;;;;;;2.87;2.87;;;;;;;;;;5115084;28;20209;-75
2022/08/09 10:57:52;;;;;;;3.20;3.00;;;;;;;21.73;62.34;66494.63;5114809;28;20226;-74
2022/08/09 11:00:28;;;;;;;2.60;2.60;;;;;;;21.88;62.48;66511.41;5115133;28;20234;-74
2022/08/09 11:02:55;;;;;;;3.03;3.03;;;;;;;21.97;62.99;66514.09;5115036;28;20581;-74
2022/08/09 11:06:14;;;;;;;3.00;3.00;;;;;;;22.05;62.04;66527.22;5114858;28;20761;-74
2022/08/09 11:08:42;;;;;;;3.57;3.23;;;;;;;;;;5114298;28;20174;-75
2022/08/09 11:11:16;;;;;;;2.60;2.60;;;;;;;;;;5114677;28;20222;-75
2022/08/09 11:13:44;;;;;;;3.20;3.00;;;;;;;;;;5115366;28;20552;-76
2022/08/09 11:16:38;;;;;;;3.42;3.22;;;;;;;22.14;61.34;66539.97;5115038;28;20302;-76
2022/08/09 11:19:07;;;;;;;2.53;2.53;;;;;;;22.08;61.41;66525.91;5114799;28;20232;-75
2022/08/09 11:21:49;;;;;;;2.67;2.67;;;;;;;22.15;60.89;66538.47;5114365;28;20651;-75
2022/08/09 11:25:04;;;;;;;2.90;2.80;;;;;;;22.13;60.17;66539.41;5114306;28;20189;-75
2022/08/09 11:27:37;;;;;;;2.92;2.90;;;;;;;;;;5114346;28;20220;-76
2022/08/09 11:30:26;;;;;;;5.03;2.77;;;;;;;22.17;61.08;66543.34;5114556;28;20580;-74
2022/08/09 11:33:16;;;;;;;13.87;3.00;;;;;;;22.22;60.62;66546.84;5114593;28;20173;-74
2022/08/09 11:35:56;;;;;;;3.60;3.30;;;;;;;22.24;60.60;66559.09;5114712;28;20205;-74
2022/08/09 11:38:33;;;;;;;2.72;2.72;;;;;;;22.33;59.62;66550.09;5114156;28;20169;-74
2022/08/09 11:41:10;;;;;;;2.50;2.47;;;;;;;22.25;60.02;66544.91;5114687;28;20222;-73
2022/08/09 11:43:42;;;;;;;5.78;2.50;;;;;;;;;;5114253;28;20212;-74
2022/08/09 11:46:09;;;;;;;2.90;2.90;;;;;;;22.27;60.50;66546.59;5115171;28;20201;-75
2022/08/09 11:48:52;;;;;;;3.17;3.17;;;;;;;;;;5113906;28;20262;-75
2022/08/09 11:51:21;;;;;;;3.20;3.20;;;;;;;;;;5113895;28;20184;-75
2022/08/09 11:54:10;;;;;;;3.17;3.17;;;;;;;;;;5114192;28;20260;-75
2022/08/09 11:56:38;;;;;;;5.30;2.20;;;;;;;;;;5113883;28;20208;-76
2022/08/09 11:59:26;;;;;;;2.70;2.70;;;;;;;;;;5114427;28;20523;-74
2022/08/09 12:01:59;;;;;;;2.45;2.42;;;;;;;;;;5114035;28;20169;-75
2022/08/09 12:04:50;;;;;;;4.97;2.90;;;;;;;22.58;56.19;66586.06;5114022;28;20209;-74
2022/08/09 12:07:28;;;;;;;3.22;2.60;;;;;;;;;;5113992;28;20268;-75
2022/08/09 12:10:07;;;;;;;2.65;2.65;;;;;;;;;;5114022;28;20177;-74
2022/08/09 12:12:53;;;;;;;2.87;2.77;;;;;;;;;;5113667;28;20663;-75
2022/08/09 12:15:23;;;;;;;2.78;2.78;;;;;;;22.70;57.31;66607.41;5113597;28;20205;-75
2022/08/09 12:18:17;;;;;;;2.70;2.50;;;;;;;22.80;56.63;66605.41;5113647;28;20258;-75
2022/08/09 12:20:56;;;;;;;7.32;2.88;;;;;;;22.86;55.78;66616.28;5109850;28;20189;-73
2022/08/09 12:23:24;;;;;;;2.38;2.38;;;;;;;22.80;55.48;66615.44;5115235;28;20300;-74
2022/08/09 12:26:12;;;;;;;3.42;3.33;;;;;;;22.87;56.87;66620.09;5116501;28;20647;-74
2022/08/09 12:28:55;;;;;;;3.38;3.20;;;;;;;22.92;56.69;66623.03;5133348;27;20188;-74
2022/08/09 12:31:27;;;;;;;3.10;2.83;;;;;;;;;;5126921;27;20187;-74
2022/08/09 12:34:13;;;;;;;2.58;2.58;;;;;;;;;;5137826;27;20268;-74
2022/08/09 12:36:55;;;;;;;2.95;2.88;;;;;;;23.02;55.64;66628.94;5138053;27;20680;-74
2022/08/09 12:39:34;;;;;;;2.28;2.17;;;;;;;;;;5138116;27;20183;-75
2022/08/09 12:42:06;;;;;;;2.83;2.83;;;;;;;;;;5138173;27;20268;-74
2022/08/09 12:44:41;;;;;;;2.67;2.55;;;;;;;23.19;54.72;66655.94;5138311;27;20179;-75
2022/08/09 12:47:18;;;;;;;2.58;2.58;;;;;;;;;;5138405;27;20196;-74
2022/08/09 12:52:37;;;;;;;7.95;2.92;;;;;;;;;;5137934;27;20173;-74
2022/08/09 12:55:26;;;;;;;2.92;2.92;;;;;;;23.44;53.70;66683.38;5137781;27;20240;-74
2022/08/09 12:58:14;;;;;;;2.97;2.88;;;;;;;23.38;52.19;66673.47;5138078;27;20260;-74
2022/08/09 13:00:53;;;;;;;2.38;2.38;;;;;;;23.41;53.49;66669.41;5137728;27;20282;-74
2022/08/09 13:03:27;;;;;;;3.17;3.08;;;;;;;;;;5138149;27;20180;-74
2022/08/09 13:06:25;;;;;;;2.95;2.67;;;;;;;23.39;53.29;66677.22;5137806;27;20236;-74
2022/08/09 13:09:06;;;;;;;2.35;2.35;;;;;;;23.42;52.22;66678.47;5131575;27;20219;-75